createdAt,value
2019-05-15T00:00:38.655Z,0.00
2019-05-15T00:01:41.086Z,0.00
2019-05-15T00:02:38.843Z,0.00
2019-05-15T00:03:39.159Z,0.00
2019-05-15T00:04:38.369Z,0.00
2019-05-15T00:05:39.036Z,0.00
2019-05-15T00:06:38.959Z,0.00
2019-05-15T00:07:38.814Z,0.00
2019-05-15T00:08:38.612Z,0.00
2019-05-15T00:09:39.259Z,0.00
2019-05-15T00:10:38.893Z,0.00
2019-05-15T00:11:38.782Z,0.00
2019-05-15T00:12:39.205Z,0.00
2019-05-15T00:13:38.651Z,0.00
2019-05-15T00:14:38.730Z,0.00
2019-05-15T00:15:36.530Z,0.00
2019-05-15T00:16:38.657Z,0.00
2019-05-15T00:17:39.061Z,0.00
2019-05-15T00:18:38.788Z,0.00
2019-05-15T00:19:38.844Z,0.00
2019-05-15T00:20:39.114Z,0.00
2019-05-15T00:21:38.306Z,0.00
2019-05-15T00:22:38.723Z,0.00
2019-05-15T00:23:38.671Z,0.00
2019-05-15T00:24:38.162Z,0.00
2019-05-15T00:25:39.060Z,0.00
2019-05-15T00:26:38.376Z,0.00
2019-05-15T00:27:38.684Z,0.00
2019-05-15T00:28:38.647Z,0.00
2019-05-15T00:29:38.383Z,0.00
2019-05-15T00:30:38.675Z,0.00
2019-05-15T00:31:38.681Z,0.00
2019-05-15T00:32:36.310Z,0.00
2019-05-15T00:33:36.295Z,0.00
2019-05-15T00:34:37.890Z,0.00
2019-05-15T00:35:38.981Z,0.00
2019-05-15T00:36:38.304Z,0.00
2019-05-15T00:37:38.457Z,0.00
2019-05-15T00:38:36.230Z,0.00
2019-05-15T00:39:36.220Z,0.00
2019-05-15T00:40:38.829Z,0.00
2019-05-15T00:41:48.363Z,0.00
2019-05-15T00:42:38.357Z,0.00
2019-05-15T00:43:38.502Z,0.00
2019-05-15T00:44:38.539Z,0.00
2019-05-15T00:45:38.342Z,0.00
2019-05-15T00:46:38.287Z,0.00
2019-05-15T00:47:36.117Z,0.00
2019-05-15T00:48:36.102Z,0.00
2019-05-15T00:49:38.093Z,0.00
2019-05-15T00:50:36.076Z,0.00
2019-05-15T00:51:36.065Z,0.00
2019-05-15T00:52:36.052Z,0.00
2019-05-15T00:53:36.035Z,0.00
2019-05-15T00:54:36.026Z,0.00
2019-05-15T00:55:38.015Z,0.00
2019-05-15T00:56:35.998Z,0.00
2019-05-15T00:57:35.987Z,0.00
2019-05-15T00:58:35.973Z,0.00
2019-05-15T00:59:35.962Z,0.00
2019-05-15T01:00:38.046Z,0.00
2019-05-15T01:01:38.025Z,0.00
2019-05-15T01:02:35.920Z,0.00
2019-05-15T01:03:35.906Z,0.00
2019-05-15T01:04:35.895Z,0.00
2019-05-15T01:05:35.883Z,0.00
2019-05-15T01:06:35.868Z,0.00
2019-05-15T01:07:35.855Z,0.00
2019-05-15T01:08:35.843Z,0.00
2019-05-15T01:09:35.828Z,0.00
2019-05-15T01:10:38.316Z,0.00
2019-05-15T01:11:37.965Z,0.00
2019-05-15T01:12:37.959Z,0.00
2019-05-15T01:13:35.776Z,0.00
2019-05-15T01:14:35.764Z,0.00
2019-05-15T01:15:35.750Z,0.00
2019-05-15T01:16:38.118Z,0.00
2019-05-15T01:17:38.698Z,0.00
2019-05-15T01:18:35.711Z,0.00
2019-05-15T01:19:37.826Z,0.00
2019-05-15T01:20:35.687Z,0.00
2019-05-15T01:21:35.669Z,0.00
2019-05-15T01:22:35.661Z,0.00
2019-05-15T01:23:35.653Z,0.00
2019-05-15T01:24:35.635Z,0.00
2019-05-15T01:25:35.620Z,0.00
2019-05-15T01:26:35.606Z,0.00
2019-05-15T01:27:35.596Z,0.00
2019-05-15T01:28:35.581Z,0.00
2019-05-15T01:29:41.922Z,0.00
2019-05-15T01:30:35.553Z,0.00
2019-05-15T01:31:37.886Z,0.00
2019-05-15T01:32:35.525Z,0.00
2019-05-15T01:33:35.515Z,0.00
2019-05-15T01:34:35.504Z,0.00
2019-05-15T01:35:35.488Z,0.00
2019-05-15T01:36:38.075Z,0.00
2019-05-15T01:37:35.458Z,0.00
2019-05-15T01:38:35.447Z,0.00
2019-05-15T01:39:35.433Z,0.00
2019-05-15T01:40:35.422Z,0.00
2019-05-15T01:41:35.413Z,0.00
2019-05-15T01:42:35.399Z,0.00
2019-05-15T01:43:35.383Z,0.00
2019-05-15T01:44:35.371Z,0.00
2019-05-15T01:45:35.356Z,0.00
2019-05-15T01:46:35.342Z,0.00
2019-05-15T01:47:35.330Z,0.00
2019-05-15T01:48:35.317Z,0.00
2019-05-15T01:49:35.302Z,0.00
2019-05-15T01:50:35.292Z,0.00
2019-05-15T01:51:35.277Z,0.00
2019-05-15T01:52:35.265Z,0.00
2019-05-15T01:53:35.251Z,0.00
2019-05-15T01:54:35.242Z,0.00
2019-05-15T01:55:35.227Z,0.00
2019-05-15T01:56:35.213Z,0.00
2019-05-15T01:57:35.203Z,0.00
2019-05-15T01:58:35.189Z,0.00
2019-05-15T01:59:35.174Z,0.00
2019-05-15T02:00:35.170Z,0.00
2019-05-15T02:01:35.150Z,0.00
2019-05-15T02:02:35.140Z,0.00
2019-05-15T02:03:35.124Z,0.00
2019-05-15T02:04:35.110Z,0.00
2019-05-15T02:05:35.097Z,0.00
2019-05-15T02:06:35.086Z,0.00
2019-05-15T02:07:35.070Z,0.00
2019-05-15T02:08:35.057Z,0.00
2019-05-15T02:09:35.049Z,0.00
2019-05-15T02:10:35.034Z,0.00
2019-05-15T02:11:35.019Z,0.00
2019-05-15T02:12:35.011Z,0.00
2019-05-15T02:13:34.993Z,0.00
2019-05-15T02:14:34.982Z,0.00
2019-05-15T02:15:34.969Z,0.00
2019-05-15T02:16:34.956Z,0.00
2019-05-15T02:17:34.942Z,0.00
2019-05-15T02:18:34.930Z,0.00
2019-05-15T02:19:34.923Z,0.00
2019-05-15T02:20:34.905Z,0.00
2019-05-15T02:21:34.893Z,0.00
2019-05-15T02:22:34.878Z,0.00
2019-05-15T02:23:34.865Z,0.00
2019-05-15T02:24:34.851Z,0.00
2019-05-15T02:25:34.839Z,0.00
2019-05-15T02:26:34.826Z,0.00
2019-05-15T02:27:34.817Z,0.00
2019-05-15T02:28:34.799Z,0.00
2019-05-15T02:29:34.788Z,0.00
2019-05-15T02:30:34.789Z,0.00
2019-05-15T02:31:34.761Z,0.00
2019-05-15T02:32:34.750Z,0.00
2019-05-15T02:33:34.736Z,0.00
2019-05-15T02:34:34.723Z,0.00
2019-05-15T02:35:34.707Z,0.00
2019-05-15T02:36:34.699Z,0.00
2019-05-15T02:37:34.683Z,0.00
2019-05-15T02:38:34.674Z,0.00
2019-05-15T02:39:34.658Z,0.00
2019-05-15T02:40:34.643Z,0.00
2019-05-15T02:41:34.637Z,0.00
2019-05-15T02:42:34.627Z,0.00
2019-05-15T02:43:34.611Z,0.00
2019-05-15T02:44:34.593Z,0.00
2019-05-15T02:45:37.756Z,0.00
2019-05-15T02:46:34.565Z,0.00
2019-05-15T02:47:34.555Z,0.00
2019-05-15T02:48:34.540Z,0.00
2019-05-15T02:49:34.531Z,0.00
2019-05-15T02:50:34.513Z,0.00
2019-05-15T02:51:34.502Z,0.00
2019-05-15T02:52:34.490Z,0.00
2019-05-15T02:53:34.472Z,0.00
2019-05-15T02:54:34.460Z,0.00
2019-05-15T02:55:34.445Z,0.00
2019-05-15T02:56:34.437Z,0.00
2019-05-15T02:57:34.437Z,0.00
2019-05-15T02:58:34.414Z,0.00
2019-05-15T02:59:34.392Z,0.00
2019-05-15T03:00:44.004Z,0.00
2019-05-15T03:01:34.365Z,0.00
2019-05-15T03:02:34.353Z,0.00
2019-05-15T03:03:34.350Z,0.00
2019-05-15T03:04:34.328Z,0.00
2019-05-15T03:05:34.349Z,0.00
2019-05-15T03:06:34.305Z,0.00
2019-05-15T03:07:34.285Z,0.00
2019-05-15T03:08:34.275Z,0.00
2019-05-15T03:09:34.273Z,0.00
2019-05-15T03:10:34.250Z,0.00
2019-05-15T03:11:34.235Z,0.00
2019-05-15T03:12:34.225Z,0.00
2019-05-15T03:13:34.205Z,0.00
2019-05-15T03:14:34.196Z,0.00
2019-05-15T03:15:34.181Z,0.00
2019-05-15T03:16:34.167Z,0.00
2019-05-15T03:17:34.155Z,0.00
2019-05-15T03:18:34.140Z,0.00
2019-05-15T03:19:34.130Z,0.00
2019-05-15T03:20:34.129Z,0.00
2019-05-15T03:21:34.103Z,0.00
2019-05-15T03:22:34.086Z,0.00
2019-05-15T03:23:34.073Z,0.00
2019-05-15T03:24:34.060Z,0.00
2019-05-15T03:25:34.047Z,0.00
2019-05-15T03:26:34.035Z,0.00
2019-05-15T03:27:34.886Z,0.00
2019-05-15T03:28:34.008Z,0.00
2019-05-15T03:29:33.999Z,0.00
2019-05-15T03:31:02.688Z,0.00
2019-05-15T03:31:48.832Z,0.00
2019-05-15T03:32:42.497Z,0.00
2019-05-15T03:33:37.075Z,0.00
2019-05-15T03:34:38.514Z,0.00
2019-05-15T03:35:33.934Z,0.00
2019-05-15T03:36:33.900Z,0.00
2019-05-15T03:37:34.484Z,0.00
2019-05-15T03:38:33.879Z,0.00
2019-05-15T03:39:33.861Z,0.00
2019-05-15T03:40:33.847Z,0.00
2019-05-15T03:41:33.831Z,0.00
2019-05-15T03:42:33.818Z,0.00
2019-05-15T03:43:33.805Z,0.00
2019-05-15T03:44:33.788Z,0.00
2019-05-15T03:45:33.776Z,0.00
2019-05-15T03:46:33.768Z,0.00
2019-05-15T03:47:33.752Z,0.00
2019-05-15T03:48:33.736Z,0.00
2019-05-15T03:49:33.724Z,0.00
2019-05-15T03:50:33.709Z,0.00
2019-05-15T03:51:33.694Z,0.00
2019-05-15T03:52:33.683Z,0.00
2019-05-15T03:53:33.668Z,0.00
2019-05-15T03:54:33.658Z,0.00
2019-05-15T03:55:33.644Z,0.00
2019-05-15T03:56:33.629Z,0.00
2019-05-15T03:57:33.631Z,0.00
2019-05-15T03:58:33.607Z,0.00
2019-05-15T03:59:33.588Z,0.00
2019-05-15T04:00:33.577Z,0.00
2019-05-15T04:01:42.922Z,0.00
2019-05-15T04:02:33.557Z,0.00
2019-05-15T04:03:33.552Z,5.63
2019-05-15T04:04:33.525Z,5.63
2019-05-15T04:05:33.531Z,5.63
2019-05-15T04:06:33.506Z,5.63
2019-05-15T04:07:33.481Z,11.25
2019-05-15T04:08:33.474Z,11.25
2019-05-15T04:09:33.456Z,11.25
2019-05-15T04:10:33.445Z,11.25
2019-05-15T04:11:33.444Z,5.63
2019-05-15T04:12:33.418Z,5.63
2019-05-15T04:13:33.415Z,5.63
2019-05-15T04:14:33.390Z,5.63
2019-05-15T04:15:33.381Z,11.25
2019-05-15T04:16:33.376Z,11.25
2019-05-15T04:17:33.350Z,16.88
2019-05-15T04:18:33.337Z,22.50
2019-05-15T04:19:33.325Z,22.50
2019-05-15T04:20:33.355Z,28.13
2019-05-15T04:21:33.326Z,33.75
2019-05-15T04:22:33.285Z,33.75
2019-05-15T04:23:33.304Z,33.75
2019-05-15T04:24:33.279Z,22.50
2019-05-15T04:25:33.262Z,16.88
2019-05-15T04:26:33.309Z,28.13
2019-05-15T04:27:33.234Z,33.75
2019-05-15T04:28:33.211Z,16.88
2019-05-15T04:29:33.191Z,16.88
2019-05-15T04:30:33.180Z,16.88
2019-05-15T04:31:50.352Z,16.88
2019-05-15T04:32:33.152Z,22.50
2019-05-15T04:33:33.140Z,28.13
2019-05-15T04:34:33.139Z,28.13
2019-05-15T04:35:33.114Z,39.38
2019-05-15T04:36:33.102Z,56.25
2019-05-15T04:37:33.087Z,208.13
2019-05-15T04:38:33.078Z,61.88
2019-05-15T04:39:33.095Z,33.75
2019-05-15T04:40:33.047Z,33.75
2019-05-15T04:41:33.032Z,28.13
2019-05-15T04:42:33.028Z,28.13
2019-05-15T04:43:41.298Z,22.50
2019-05-15T04:44:32.998Z,22.50
2019-05-15T04:45:35.179Z,22.50
2019-05-15T04:46:32.968Z,22.50
2019-05-15T04:47:32.960Z,16.88
2019-05-15T04:48:32.945Z,16.88
2019-05-15T04:49:32.928Z,16.88
2019-05-15T04:50:32.912Z,16.88
2019-05-15T04:51:32.901Z,16.88
2019-05-15T04:52:32.888Z,16.88
2019-05-15T04:53:33.504Z,11.25
2019-05-15T04:54:32.860Z,11.25
2019-05-15T04:55:32.847Z,11.25
2019-05-15T04:56:32.833Z,11.25
2019-05-15T04:57:34.314Z,11.25
2019-05-15T04:58:32.805Z,11.25
2019-05-15T04:59:32.794Z,11.25
2019-05-15T05:00:32.778Z,11.25
2019-05-15T05:01:32.769Z,11.25
2019-05-15T05:02:32.756Z,16.88
2019-05-15T05:03:34.547Z,16.88
2019-05-15T05:04:32.728Z,16.88
2019-05-15T05:05:32.712Z,16.88
2019-05-15T05:06:32.696Z,16.88
2019-05-15T05:07:32.692Z,16.88
2019-05-15T05:08:32.675Z,22.50
2019-05-15T05:09:32.657Z,22.50
2019-05-15T05:10:32.648Z,22.50
2019-05-15T05:11:32.631Z,22.50
2019-05-15T05:12:32.620Z,22.50
2019-05-15T05:13:32.604Z,22.50
2019-05-15T05:14:32.592Z,22.50
2019-05-15T05:15:32.579Z,22.50
2019-05-15T05:16:32.563Z,22.50
2019-05-15T05:17:32.553Z,22.50
2019-05-15T05:18:32.538Z,22.50
2019-05-15T05:19:32.524Z,22.50
2019-05-15T05:20:32.513Z,22.50
2019-05-15T05:21:32.497Z,22.50
2019-05-15T05:22:32.505Z,22.50
2019-05-15T05:23:32.475Z,28.13
2019-05-15T05:24:32.460Z,28.13
2019-05-15T05:25:32.447Z,28.13
2019-05-15T05:26:32.432Z,28.13
2019-05-15T05:27:32.415Z,28.13
2019-05-15T05:28:32.404Z,33.75
2019-05-15T05:29:32.389Z,39.38
2019-05-15T05:30:32.379Z,50.63
2019-05-15T05:31:32.372Z,56.25
2019-05-15T05:32:35.278Z,61.88
2019-05-15T05:33:32.339Z,73.13
2019-05-15T05:34:32.326Z,84.38
2019-05-15T05:35:32.311Z,95.63
2019-05-15T05:36:32.299Z,101.25
2019-05-15T05:37:32.289Z,106.88
2019-05-15T05:38:32.272Z,112.50
2019-05-15T05:39:32.259Z,112.50
2019-05-15T05:40:32.248Z,112.50
2019-05-15T05:41:32.237Z,118.13
2019-05-15T05:42:32.219Z,118.13
2019-05-15T05:43:32.207Z,112.50
2019-05-15T05:44:32.192Z,112.50
2019-05-15T05:45:32.178Z,106.88
2019-05-15T05:46:32.168Z,106.88
2019-05-15T05:47:32.155Z,101.25
2019-05-15T05:48:32.142Z,101.25
2019-05-15T05:49:32.127Z,101.25
2019-05-15T05:50:32.114Z,95.63
2019-05-15T05:51:32.103Z,101.25
2019-05-15T05:52:32.088Z,101.25
2019-05-15T05:53:32.075Z,106.88
2019-05-15T05:54:32.063Z,106.88
2019-05-15T05:55:32.056Z,95.63
2019-05-15T05:56:32.036Z,95.63
2019-05-15T05:57:32.022Z,95.63
2019-05-15T05:58:32.011Z,95.63
2019-05-15T05:59:31.997Z,95.63
2019-05-15T06:00:31.987Z,95.63
2019-05-15T06:01:31.971Z,101.25
2019-05-15T06:02:43.792Z,106.88
2019-05-15T06:03:31.950Z,106.88
2019-05-15T06:04:31.933Z,112.50
2019-05-15T06:05:31.918Z,112.50
2019-05-15T06:06:31.908Z,112.50
2019-05-15T06:07:31.891Z,106.88
2019-05-15T06:08:31.878Z,112.50
2019-05-15T06:09:31.865Z,118.13
2019-05-15T06:10:31.855Z,146.25
2019-05-15T06:11:31.839Z,129.38
2019-05-15T06:12:31.829Z,151.88
2019-05-15T06:13:31.813Z,146.25
2019-05-15T06:14:31.802Z,140.63
2019-05-15T06:15:31.788Z,140.63
2019-05-15T06:16:31.779Z,135.00
2019-05-15T06:17:31.771Z,112.50
2019-05-15T06:18:31.757Z,135.00
2019-05-15T06:19:31.745Z,135.00
2019-05-15T06:20:31.725Z,123.75
2019-05-15T06:21:31.711Z,135.00
2019-05-15T06:22:31.698Z,135.00
2019-05-15T06:23:34.917Z,146.25
2019-05-15T06:24:31.675Z,140.63
2019-05-15T06:25:31.665Z,135.00
2019-05-15T06:26:31.647Z,151.88
2019-05-15T06:27:31.638Z,146.25
2019-05-15T06:28:31.631Z,146.25
2019-05-15T06:29:31.610Z,123.75
2019-05-15T06:30:31.595Z,146.25
2019-05-15T06:31:31.596Z,140.63
2019-05-15T06:32:31.575Z,140.63
2019-05-15T06:33:31.559Z,146.25
2019-05-15T06:34:31.550Z,135.00
2019-05-15T06:35:31.560Z,140.63
2019-05-15T06:36:31.526Z,140.63
2019-05-15T06:37:31.521Z,140.63
2019-05-15T06:38:31.496Z,146.25
2019-05-15T06:39:31.487Z,146.25
2019-05-15T06:40:31.472Z,146.25
2019-05-15T06:41:33.921Z,140.63
2019-05-15T06:42:31.448Z,140.63
2019-05-15T06:43:31.440Z,140.63
2019-05-15T06:44:31.425Z,140.63
2019-05-15T06:45:31.413Z,135.00
2019-05-15T06:46:31.401Z,140.63
2019-05-15T06:47:31.390Z,140.63
2019-05-15T06:48:31.385Z,140.63
2019-05-15T06:49:31.364Z,135.00
2019-05-15T06:50:31.351Z,135.00
2019-05-15T06:51:31.346Z,135.00
2019-05-15T06:52:31.328Z,129.38
2019-05-15T06:53:31.316Z,129.38
2019-05-15T06:54:31.303Z,129.38
2019-05-15T06:55:31.291Z,129.38
2019-05-15T06:56:31.281Z,129.38
2019-05-15T06:57:31.281Z,129.38
2019-05-15T06:58:31.257Z,129.38
2019-05-15T06:59:31.243Z,129.38
2019-05-15T07:00:31.232Z,129.38
2019-05-15T07:01:31.219Z,129.38
2019-05-15T07:02:31.212Z,129.38
2019-05-15T07:03:31.201Z,129.38
2019-05-15T07:04:31.188Z,123.75
2019-05-15T07:05:31.195Z,123.75
2019-05-15T07:06:31.163Z,123.75
2019-05-15T07:07:31.151Z,123.75
2019-05-15T07:08:31.141Z,123.75
2019-05-15T07:09:31.123Z,129.38
2019-05-15T07:10:31.111Z,123.75
2019-05-15T07:11:31.102Z,129.38
2019-05-15T07:12:31.088Z,129.38
2019-05-15T07:13:31.079Z,129.38
2019-05-15T07:14:31.068Z,129.38
2019-05-15T07:15:31.052Z,129.38
2019-05-15T07:16:31.043Z,129.38
2019-05-15T07:17:31.036Z,129.38
2019-05-15T07:18:31.016Z,123.75
2019-05-15T07:19:31.011Z,123.75
2019-05-15T07:20:31.005Z,123.75
2019-05-15T07:21:30.992Z,123.75
2019-05-15T07:22:30.975Z,123.75
2019-05-15T07:23:30.960Z,123.75
2019-05-15T07:24:30.957Z,123.75
2019-05-15T07:25:30.936Z,112.50
2019-05-15T07:26:30.927Z,129.38
2019-05-15T07:27:30.912Z,129.38
2019-05-15T07:28:30.903Z,129.38
2019-05-15T07:29:30.889Z,129.38
2019-05-15T07:30:30.878Z,129.38
2019-05-15T07:31:30.867Z,123.75
2019-05-15T07:32:30.855Z,129.38
2019-05-15T07:33:39.713Z,129.38
2019-05-15T07:34:30.834Z,129.38
2019-05-15T07:35:30.822Z,112.50
2019-05-15T07:36:30.807Z,123.75
2019-05-15T07:37:30.797Z,90.00
2019-05-15T07:38:30.785Z,123.75
2019-05-15T07:39:30.777Z,129.38
2019-05-15T07:40:30.765Z,129.38
2019-05-15T07:41:30.750Z,123.75
2019-05-15T07:42:30.741Z,106.88
2019-05-15T07:43:30.732Z,106.88
2019-05-15T07:44:30.721Z,129.38
2019-05-15T07:45:30.708Z,135.00
2019-05-15T07:46:30.695Z,112.50
2019-05-15T07:47:30.680Z,106.88
2019-05-15T07:48:30.672Z,112.50
2019-05-15T07:49:30.659Z,123.75
2019-05-15T07:50:30.647Z,146.25
2019-05-15T07:51:30.643Z,123.75
2019-05-15T07:52:30.628Z,140.63
2019-05-15T07:53:30.612Z,135.00
2019-05-15T07:54:30.604Z,112.50
2019-05-15T07:55:30.593Z,146.25
2019-05-15T07:56:30.583Z,135.00
2019-05-15T07:57:30.570Z,135.00
2019-05-15T07:58:30.557Z,135.00
2019-05-15T07:59:30.547Z,135.00
2019-05-15T08:00:30.537Z,129.38
2019-05-15T08:01:30.520Z,135.00
2019-05-15T08:02:30.513Z,140.63
2019-05-15T08:03:30.501Z,106.88
2019-05-15T08:04:33.109Z,90.00
2019-05-15T08:05:30.481Z,106.88
2019-05-15T08:06:30.466Z,135.00
2019-05-15T08:07:30.488Z,140.63
2019-05-15T08:08:30.454Z,135.00
2019-05-15T08:09:30.433Z,118.13
2019-05-15T08:10:30.430Z,146.25
2019-05-15T08:11:30.417Z,112.50
2019-05-15T08:12:30.403Z,129.38
2019-05-15T08:13:30.392Z,163.13
2019-05-15T08:14:30.401Z,157.50
2019-05-15T08:15:30.368Z,146.25
2019-05-15T08:16:30.357Z,151.88
2019-05-15T08:17:30.346Z,123.75
2019-05-15T08:18:30.338Z,157.50
2019-05-15T08:19:30.352Z,168.75
2019-05-15T08:20:30.316Z,163.13
2019-05-15T08:21:30.304Z,135.00
2019-05-15T08:22:30.291Z,146.25
2019-05-15T08:23:30.286Z,118.13
2019-05-15T08:24:30.280Z,123.75
2019-05-15T08:25:35.159Z,129.38
2019-05-15T08:26:30.248Z,151.88
2019-05-15T08:27:30.247Z,118.13
2019-05-15T08:28:30.230Z,123.75
2019-05-15T08:29:30.222Z,157.50
2019-05-15T08:30:30.207Z,146.25
2019-05-15T08:31:30.205Z,151.88
2019-05-15T08:32:30.187Z,123.75
2019-05-15T08:33:30.178Z,118.13
2019-05-15T08:34:30.166Z,118.13
2019-05-15T08:35:30.158Z,163.13
2019-05-15T08:36:31.386Z,157.50
2019-05-15T08:37:30.135Z,123.75
2019-05-15T08:38:30.125Z,118.13
2019-05-15T08:39:30.115Z,112.50
2019-05-15T08:40:30.105Z,123.75
2019-05-15T08:41:30.096Z,112.50
2019-05-15T08:42:32.145Z,118.13
2019-05-15T08:43:31.422Z,123.75
2019-05-15T08:44:30.061Z,123.75
2019-05-15T08:45:30.055Z,123.75
2019-05-15T08:46:30.050Z,112.50
2019-05-15T08:47:30.053Z,135.00
2019-05-15T08:48:32.613Z,123.75
2019-05-15T08:49:30.014Z,112.50
2019-05-15T08:50:30.002Z,106.88
2019-05-15T08:51:29.992Z,106.88
2019-05-15T08:52:29.981Z,112.50
2019-05-15T08:53:29.973Z,90.00
2019-05-15T08:54:29.962Z,101.25
2019-05-15T08:55:29.953Z,95.63
2019-05-15T08:56:29.945Z,84.38
2019-05-15T08:57:29.935Z,123.75
2019-05-15T08:58:29.923Z,78.75
2019-05-15T08:59:29.914Z,78.75
2019-05-15T09:00:29.902Z,78.75
2019-05-15T09:01:29.891Z,118.13
2019-05-15T09:02:29.881Z,78.75
2019-05-15T09:03:29.870Z,112.50
2019-05-15T09:04:34.504Z,123.75
2019-05-15T09:05:29.856Z,106.88
2019-05-15T09:06:29.842Z,123.75
2019-05-15T09:07:29.829Z,95.63
2019-05-15T09:08:29.819Z,95.63
2019-05-15T09:09:29.807Z,95.63
2019-05-15T09:10:29.800Z,112.50
2019-05-15T09:11:29.789Z,101.25
2019-05-15T09:12:29.777Z,90.00
2019-05-15T09:13:29.769Z,84.38
2019-05-15T09:14:29.758Z,84.38
2019-05-15T09:15:29.748Z,90.00
2019-05-15T09:16:29.739Z,90.00
2019-05-15T09:17:29.729Z,90.00
2019-05-15T09:18:29.724Z,95.63
2019-05-15T09:19:29.706Z,95.63
2019-05-15T09:20:29.701Z,95.63
2019-05-15T09:21:29.687Z,123.75
2019-05-15T09:22:29.688Z,123.75
2019-05-15T09:23:29.671Z,101.25
2019-05-15T09:24:29.658Z,118.13
2019-05-15T09:25:29.646Z,112.50
2019-05-15T09:26:29.640Z,112.50
2019-05-15T09:27:29.629Z,84.38
2019-05-15T09:28:29.872Z,118.13
2019-05-15T09:29:29.611Z,73.13
2019-05-15T09:30:29.597Z,78.75
2019-05-15T09:31:29.587Z,78.75
2019-05-15T09:32:29.576Z,78.75
2019-05-15T09:33:29.589Z,84.38
2019-05-15T09:34:46.398Z,95.63
2019-05-15T09:35:29.548Z,129.38
2019-05-15T09:36:29.539Z,118.13
2019-05-15T09:37:29.525Z,84.38
2019-05-15T09:38:29.531Z,78.75
2019-05-15T09:39:29.507Z,73.13
2019-05-15T09:40:42.541Z,67.50
2019-05-15T09:41:29.486Z,67.50
2019-05-15T09:42:29.477Z,67.50
2019-05-15T09:43:29.467Z,78.75
2019-05-15T09:44:29.459Z,73.13
2019-05-15T09:45:29.444Z,118.13
2019-05-15T09:46:29.441Z,67.50
2019-05-15T09:47:29.802Z,67.50
2019-05-15T09:48:29.419Z,61.88
2019-05-15T09:49:29.417Z,61.88
2019-05-15T09:50:29.399Z,56.25
2019-05-15T09:51:29.389Z,56.25
2019-05-15T09:52:30.186Z,56.25
2019-05-15T09:53:29.368Z,56.25
2019-05-15T09:54:29.481Z,56.25
2019-05-15T09:55:29.350Z,56.25
2019-05-15T09:56:29.336Z,61.88
2019-05-15T09:57:30.197Z,61.88
2019-05-15T09:58:30.219Z,61.88
2019-05-15T09:59:29.307Z,61.88
2019-05-15T10:00:29.453Z,61.88
2019-05-15T10:01:29.286Z,61.88
2019-05-15T10:02:29.276Z,61.88
2019-05-15T10:03:29.273Z,61.88
2019-05-15T10:04:29.258Z,67.50
2019-05-15T10:05:29.246Z,61.88
2019-05-15T10:06:29.240Z,61.88
2019-05-15T10:07:29.227Z,61.88
2019-05-15T10:08:29.475Z,61.88
2019-05-15T10:09:29.211Z,61.88
2019-05-15T10:10:29.200Z,61.88
2019-05-15T10:11:29.183Z,61.88
2019-05-15T10:12:34.497Z,67.50
2019-05-15T10:13:29.161Z,67.50
2019-05-15T10:14:29.739Z,73.13
2019-05-15T10:15:29.143Z,78.75
2019-05-15T10:16:29.130Z,84.38
2019-05-15T10:17:29.236Z,90.00
2019-05-15T10:18:29.114Z,95.63
2019-05-15T10:19:29.234Z,101.25
2019-05-15T10:20:29.283Z,106.88
2019-05-15T10:21:32.417Z,106.88
2019-05-15T10:22:29.069Z,106.88
2019-05-15T10:23:29.433Z,106.88
2019-05-15T10:24:29.053Z,106.88
2019-05-15T10:25:29.037Z,101.25
2019-05-15T10:26:29.031Z,101.25
2019-05-15T10:27:29.019Z,101.25
2019-05-15T10:28:29.503Z,101.25
2019-05-15T10:29:28.996Z,112.50
2019-05-15T10:30:29.004Z,118.13
2019-05-15T10:31:28.982Z,123.75
2019-05-15T10:32:29.245Z,123.75
2019-05-15T10:33:29.562Z,123.75
2019-05-15T10:34:29.006Z,123.75
2019-05-15T10:35:31.681Z,118.13
2019-05-15T10:36:28.930Z,118.13
2019-05-15T10:37:28.914Z,118.13
2019-05-15T10:38:28.910Z,112.50
2019-05-15T10:39:28.993Z,106.88
2019-05-15T10:40:29.758Z,106.88
2019-05-15T10:41:28.878Z,112.50
2019-05-15T10:42:29.130Z,112.50
2019-05-15T10:43:28.944Z,112.50
2019-05-15T10:44:28.844Z,112.50
2019-05-15T10:45:29.616Z,112.50
2019-05-15T10:46:28.824Z,118.13
2019-05-15T10:47:29.412Z,123.75
2019-05-15T10:48:29.466Z,129.38
2019-05-15T10:49:28.794Z,135.00
2019-05-15T10:50:28.784Z,135.00
2019-05-15T10:51:28.841Z,140.63
2019-05-15T10:52:28.800Z,140.63
2019-05-15T10:53:29.665Z,146.25
2019-05-15T10:54:29.377Z,146.25
2019-05-15T10:55:28.944Z,123.75
2019-05-15T10:56:29.275Z,101.25
2019-05-15T10:57:28.717Z,95.63
2019-05-15T10:58:28.794Z,90.00
2019-05-15T10:59:28.699Z,90.00
2019-05-15T11:00:28.773Z,95.63
2019-05-15T11:01:28.679Z,101.25
2019-05-15T11:02:29.094Z,129.38
2019-05-15T11:03:29.770Z,123.75
2019-05-15T11:04:28.940Z,146.25
2019-05-15T11:05:40.706Z,185.63
2019-05-15T11:06:28.904Z,185.63
2019-05-15T11:07:28.623Z,174.38
2019-05-15T11:08:29.135Z,174.38
2019-05-15T11:09:28.797Z,123.75
2019-05-15T11:10:29.063Z,112.50
2019-05-15T11:11:28.583Z,106.88
2019-05-15T11:12:29.246Z,106.88
2019-05-15T11:13:28.959Z,101.25
2019-05-15T11:14:28.799Z,101.25
2019-05-15T11:15:29.117Z,106.88
2019-05-15T11:16:28.536Z,106.88
2019-05-15T11:17:28.677Z,112.50
2019-05-15T11:18:30.846Z,112.50
2019-05-15T11:19:35.684Z,112.50
2019-05-15T11:20:28.497Z,112.50
2019-05-15T11:21:28.490Z,118.13
2019-05-15T11:22:29.899Z,118.13
2019-05-15T11:23:29.266Z,118.13
2019-05-15T11:24:32.271Z,118.13
2019-05-15T11:25:30.139Z,123.75
2019-05-15T11:26:33.090Z,123.75
2019-05-15T11:27:31.365Z,123.75
2019-05-15T11:28:31.522Z,118.13
2019-05-15T11:29:28.413Z,118.13
2019-05-15T11:30:28.404Z,112.50
2019-05-15T11:31:28.791Z,112.50
2019-05-15T11:32:29.394Z,118.13
2019-05-15T11:33:29.202Z,118.13
2019-05-15T11:34:29.037Z,118.13
2019-05-15T11:35:28.589Z,118.13
2019-05-15T11:36:28.939Z,118.13
2019-05-15T11:37:28.454Z,163.13
2019-05-15T11:38:28.955Z,168.75
2019-05-15T11:39:28.914Z,168.75
2019-05-15T11:40:28.510Z,140.63
2019-05-15T11:41:29.460Z,146.25
2019-05-15T11:42:28.954Z,118.13
2019-05-15T11:43:29.129Z,112.50
2019-05-15T11:44:28.443Z,112.50
2019-05-15T11:45:29.037Z,101.25
2019-05-15T11:46:29.128Z,95.63
2019-05-15T11:47:28.250Z,95.63
2019-05-15T11:48:29.922Z,90.00
2019-05-15T11:49:29.045Z,90.00
2019-05-15T11:50:29.287Z,95.63
2019-05-15T11:51:29.070Z,95.63
2019-05-15T11:52:29.396Z,95.63
2019-05-15T11:53:28.503Z,106.88
2019-05-15T11:54:28.434Z,112.50
2019-05-15T11:55:29.163Z,118.13
2019-05-15T11:56:29.619Z,123.75
2019-05-15T11:57:39.108Z,123.75
2019-05-15T11:58:28.325Z,123.75
2019-05-15T11:59:30.057Z,118.13
2019-05-15T12:00:30.316Z,118.13
2019-05-15T12:01:28.758Z,118.13
2019-05-15T12:02:29.322Z,118.13
2019-05-15T12:03:29.142Z,112.50
2019-05-15T12:04:33.750Z,112.50
2019-05-15T12:05:28.775Z,118.13
2019-05-15T12:06:29.289Z,118.13
2019-05-15T12:07:29.002Z,118.13
2019-05-15T12:08:29.360Z,123.75
2019-05-15T12:09:28.325Z,129.38
2019-05-15T12:10:28.908Z,129.38
2019-05-15T12:11:36.255Z,106.88
2019-05-15T12:12:31.798Z,95.63
2019-05-15T12:13:28.105Z,90.00
2019-05-15T12:14:29.643Z,78.75
2019-05-15T12:15:28.103Z,73.13
2019-05-15T12:16:28.993Z,73.13
2019-05-15T12:17:28.572Z,73.13
2019-05-15T12:18:28.619Z,73.13
2019-05-15T12:19:29.229Z,73.13
2019-05-15T12:20:28.581Z,73.13
2019-05-15T12:21:28.568Z,73.13
2019-05-15T12:22:28.978Z,78.75
2019-05-15T12:23:29.094Z,78.75
2019-05-15T12:24:35.038Z,84.38
2019-05-15T12:25:31.434Z,90.00
2019-05-15T12:26:29.178Z,95.63
2019-05-15T12:27:28.370Z,95.63
2019-05-15T12:28:29.573Z,101.25
2019-05-15T12:29:28.548Z,101.25
2019-05-15T12:30:29.612Z,101.25
2019-05-15T12:31:27.836Z,101.25
2019-05-15T12:32:35.794Z,101.25
2019-05-15T12:33:28.916Z,95.63
2019-05-15T12:34:28.913Z,101.25
2019-05-15T12:35:29.510Z,101.25
2019-05-15T12:37:28.495Z,106.88
2019-05-15T12:38:28.871Z,106.88
2019-05-15T12:39:24.792Z,101.25
2019-05-15T12:39:30.302Z,106.88
2019-05-15T12:59:44.763Z,118.13
2019-05-15T13:00:29.852Z,118.13
2019-05-15T13:01:29.530Z,118.13
2019-05-15T13:02:28.055Z,112.50
2019-05-15T13:03:28.899Z,112.50
2019-05-15T13:04:28.420Z,118.13
2019-05-15T13:05:28.735Z,118.13
2019-05-15T13:06:28.521Z,123.75
2019-05-15T13:07:28.563Z,123.75
2019-05-15T13:08:29.051Z,129.38
2019-05-15T13:09:27.831Z,151.88